Time;durP1;ratioP1;P1;durP2;ratioP2;P2;SDS_P1;SDS_P2;PMS_P1;PMS_P2;Temp;Humidity;BMP_temperature;BMP_pressure;BME280_temperature;BME280_humidity;BME280_pressure;Samples;Min_cycle;Max_cycle;Signal;HPM_P1;HPM_P2
2022/03/09 00:00:57;;;;;;;19.00;11.27;;;;;;;-146.64;84.84;39722.56;5061855;28;20069;-77
2022/03/09 00:03:22;;;;;;;21.50;11.20;;;;;;;-146.64;85.26;39714.38;5054106;28;20024;-76
2022/03/09 00:05:48;;;;;;;21.00;12.02;;;;;;;-146.64;85.41;39722.56;5053288;28;20131;-76
2022/03/09 00:08:14;;;;;;;18.77;12.02;;;;;;;-146.64;86.55;39738.94;5039616;28;20044;-77
2022/03/09 00:10:39;;;;;;;18.15;11.57;;;;;;;-146.64;88.11;39769.66;5060435;28;20378;-76
2022/03/09 00:13:04;;;;;;;23.10;11.73;;;;;;;-146.64;89.42;39814.69;5050452;28;20468;-76
2022/03/09 00:15:30;;;;;;;17.77;11.27;;;;;;;-146.64;89.55;39826.97;5051415;28;20092;-76
2022/03/09 00:17:55;;;;;;;19.83;11.60;;;;;;;-146.64;90.53;39849.47;5051459;28;20040;-76
2022/03/09 00:20:21;;;;;;;24.10;12.75;;;;;;;-146.64;89.59;39792.16;5051002;28;20021;-76
2022/03/09 00:22:46;;;;;;;22.90;12.05;;;;;;;-146.64;90.03;39837.19;5055522;28;20028;-76
2022/03/09 00:25:11;;;;;;;18.80;11.13;;;;;;;-146.64;90.74;39845.38;5031730;28;20400;-76
2022/03/09 00:27:37;;;;;;;19.75;11.93;;;;;;;-146.64;92.59;39894.50;5034411;28;20074;-76
2022/03/09 00:30:04;;;;;;;19.65;12.20;;;;;;;-146.64;92.92;39902.69;5045655;28;20028;-76
2022/03/09 00:32:30;;;;;;;21.48;13.38;;;;;;;-146.64;94.47;40005.03;5057004;28;20364;-76
2022/03/09 00:34:55;;;;;;;24.90;11.98;;;;;;;-146.64;95.62;39955.91;5050406;28;20032;-76
2022/03/09 00:37:21;;;;;;;23.50;11.65;;;;;;;-146.64;96.36;39957.97;5052060;28;20032;-76
2022/03/09 00:39:46;;;;;;;19.42;11.77;;;;;;;-146.64;97.40;40062.34;5052046;28;20052;-76
2022/03/09 00:42:11;;;;;;;20.75;11.68;;;;;;;-146.64;99.67;40078.72;5032725;28;20423;-76
2022/03/09 00:44:37;;;;;;;24.35;12.20;;;;;;;-146.64;100.00;40123.75;5051228;28;20071;-76
2022/03/09 00:47:03;;;;;;;21.83;12.65;;;;;;;-146.64;100.00;40148.31;5040786;28;20082;-77
2022/03/09 00:49:28;;;;;;;20.35;12.20;;;;;;;-146.64;100.00;40127.84;5056907;28;20021;-76
2022/03/09 00:51:53;;;;;;;18.67;12.32;;;;;;;-146.64;100.00;40213.84;5067226;28;20024;-76
2022/03/09 00:54:19;;;;;;;24.17;12.50;;;;;;;-146.64;100.00;40185.19;5065374;28;20021;-76
2022/03/09 00:56:44;;;;;;;22.08;12.80;;;;;;;-146.64;100.00;40168.81;5066716;28;20476;-76
2022/03/09 00:59:10;;;;;;;26.35;12.18;;;;;;;-146.64;100.00;40222.03;5054236;28;20021;-77
2022/03/09 01:01:35;;;;;;;19.50;12.43;;;;;;;-146.64;100.00;40211.78;5057490;28;20108;-76
2022/03/09 01:04:00;;;;;;;18.77;11.50;;;;;;;-146.64;100.00;40262.97;5031189;28;20095;-76
2022/03/09 01:06:26;;;;;;;20.20;12.70;;;;;;;-146.64;100.00;40293.66;5052018;28;20418;-76
2022/03/09 01:08:51;;;;;;;24.35;12.20;;;;;;;-146.64;100.00;40291.63;5051250;28;20111;-76
2022/03/09 01:11:16;;;;;;;19.02;11.90;;;;;;;-146.64;100.00;40324.38;5047783;28;20046;-76
2022/03/09 01:13:42;;;;;;;22.35;12.80;;;;;;;-146.64;100.00;40408.31;5060606;28;20107;-77
2022/03/09 01:16:07;;;;;;;22.52;13.95;;;;;;;-146.64;100.00;40381.69;5057600;28;20056;-76
2022/03/09 01:18:32;;;;;;;20.40;12.52;;;;;;;-146.64;100.00;40412.41;5034318;28;20060;-76
2022/03/09 01:20:58;;;;;;;22.95;13.70;;;;;;;-146.64;100.00;40455.41;5043345;28;20027;-77
2022/03/09 01:23:23;;;;;;;21.00;12.80;;;;;;;-146.64;100.00;40500.44;5036412;28;20028;-77
2022/03/09 01:25:50;;;;;;;23.50;13.02;;;;;;;-146.64;100.00;40541.38;5035641;28;20036;-76
2022/03/09 01:28:15;;;;;;;20.23;11.73;;;;;;;-146.64;100.00;40443.13;5054078;28;20024;-76
2022/03/09 01:30:41;;;;;;;26.48;13.50;;;;;;;-146.64;100.00;40443.13;5061775;28;20067;-76
2022/03/09 01:33:06;;;;;;;19.52;11.98;;;;;;;-146.64;100.00;40488.16;5044024;28;20153;-76
2022/03/09 01:35:32;;;;;;;22.10;12.65;;;;;;;-146.64;100.00;40426.72;5043828;28;20043;-76
2022/03/09 01:37:57;;;;;;;21.88;12.57;;;;;;;-146.64;100.00;40240.44;5030461;28;20089;-76
2022/03/09 01:40:22;;;;;;;19.15;11.65;;;;;;;-146.64;100.00;40179.03;5037706;28;20050;-76
2022/03/09 01:42:48;;;;;;;25.20;12.43;;;;;;;-146.64;100.00;40162.66;5039075;28;20546;-76
2022/03/09 01:45:15;;;;;;;19.55;12.25;;;;;;;-146.64;100.00;40156.50;5037267;28;20425;-76
2022/03/09 01:47:40;;;;;;;19.70;11.90;;;;;;;-146.64;100.00;40113.53;5054586;28;20033;-76
2022/03/09 01:50:08;;;;;;;22.52;13.32;;;;;;;-146.64;100.00;40168.81;5048521;28;20049;-76
2022/03/09 01:52:34;;;;;;;18.52;11.93;;;;;;;-146.64;100.00;40224.06;5059239;28;20055;-76
2022/03/09 01:55:00;;;;;;;21.20;12.27;;;;;;;-146.64;100.00;40228.16;5050664;28;20047;-75
2022/03/09 01:57:25;;;;;;;19.85;12.57;;;;;;;-146.64;100.00;40291.63;5064152;28;20056;-76
2022/03/09 01:59:51;;;;;;;21.38;12.43;;;;;;;-146.64;100.00;40375.56;5030268;28;20059;-76
2022/03/09 02:02:17;;;;;;;20.80;12.13;;;;;;;-146.64;100.00;40451.31;5052276;28;20063;-75
2022/03/09 02:04:43;;;;;;;24.30;13.18;;;;;;;-146.64;100.00;40355.09;5034761;28;20065;-75
2022/03/09 02:07:09;;;;;;;21.80;12.57;;;;;;;-146.64;100.00;40393.97;5032294;28;20029;-78
2022/03/09 02:09:41;;;;;;;23.85;12.88;;;;;;;-146.64;100.00;40406.25;5033902;28;20021;-77
2022/03/09 02:12:09;;;;;;;22.15;13.13;;;;;;;-146.64;100.00;40377.59;5021055;28;20089;-77
2022/03/09 02:14:41;;;;;;;21.13;12.65;;;;;;;-146.64;100.00;40359.19;5043736;28;20043;-77
2022/03/09 02:17:10;;;;;;;24.67;12.13;;;;;;;-146.64;100.00;40279.34;5048945;28;20029;-77
2022/03/09 02:19:36;;;;;;;20.05;12.15;;;;;;;-146.64;100.00;40164.72;5051103;28;20032;-78
2022/03/09 02:22:07;;;;;;;19.85;12.20;;;;;;;-146.64;100.00;40189.28;5065855;28;20032;-75
2022/03/09 02:24:33;;;;;;;20.33;12.00;;;;;;;-146.64;100.00;40088.97;5034245;28;20300;-76
2022/03/09 02:26:58;;;;;;;19.55;12.27;;;;;;;-146.64;100.00;40113.53;5045780;28;20499;-75
2022/03/09 02:29:23;;;;;;;19.90;12.38;;;;;;;-146.64;100.00;40115.56;5056269;28;20069;-76
2022/03/09 02:31:49;;;;;;;20.58;12.25;;;;;;;-146.64;100.00;40136.03;5060778;28;20043;-76
2022/03/09 02:34:14;;;;;;;20.92;12.43;;;;;;;-146.64;100.00;40058.25;5054509;28;20028;-77
2022/03/09 02:36:39;;;;;;;21.13;12.00;;;;;;;-146.64;100.00;40129.91;5055858;28;20024;-75
2022/03/09 02:39:05;;;;;;;21.42;12.20;;;;;;;-146.64;100.00;40111.47;5053379;28;20021;-75
2022/03/09 02:41:33;;;;;;;21.08;12.38;;;;;;;-146.64;100.00;40066.44;5067912;28;20021;-77
2022/03/09 02:44:00;;;;;;;17.85;11.10;;;;;;;-146.64;100.00;39976.38;5043394;28;20031;-75
2022/03/09 02:46:26;;;;;;;20.92;12.15;;;;;;;-146.64;100.00;39972.28;5053654;28;20040;-75
2022/03/09 02:48:52;;;;;;;22.13;11.63;;;;;;;-146.64;100.00;39943.63;5052153;28;20440;-75
2022/03/09 02:51:17;;;;;;;19.40;11.27;;;;;;;-146.64;100.00;39882.22;5044645;28;20075;-76
2022/03/09 02:53:43;;;;;;;19.98;11.27;;;;;;;-146.64;100.00;39955.91;5052432;28;20429;-75
2022/03/09 02:56:08;;;;;;;20.85;11.73;;;;;;;-146.64;100.00;39951.81;5052378;28;20031;-76
2022/03/09 02:58:34;;;;;;;18.92;11.05;;;;;;;-146.64;100.00;39996.84;5052226;28;20037;-75
2022/03/09 03:00:59;;;;;;;19.15;11.68;;;;;;;-146.64;100.00;40009.13;5053974;28;20171;-77
2022/03/09 03:03:24;;;;;;;18.48;11.38;;;;;;;-146.64;100.00;40060.31;5053157;28;20028;-77
2022/03/09 03:05:50;;;;;;;23.88;11.52;;;;;;;-146.64;100.00;40131.94;5065624;28;20025;-77
2022/03/09 03:08:15;;;;;;;20.73;12.13;;;;;;;-146.64;100.00;40129.91;5046061;28;20021;-77
2022/03/09 03:10:41;;;;;;;18.30;11.63;;;;;;;-146.64;100.00;40181.09;5033211;28;20045;-77
2022/03/09 03:13:07;;;;;;;18.77;12.23;;;;;;;-146.64;100.00;40246.59;5072468;28;20036;-77
2022/03/09 03:15:32;;;;;;;18.48;11.77;;;;;;;-146.64;100.00;40156.50;5052221;28;20079;-77
2022/03/09 03:17:57;;;;;;;18.10;11.63;;;;;;;-146.64;100.00;40121.72;5054235;28;20040;-77
2022/03/09 03:20:22;;;;;;;20.23;11.40;;;;;;;-146.64;100.00;40131.94;5064893;28;20077;-76
2022/03/09 03:22:48;;;;;;;16.63;11.20;;;;;;;-146.64;100.00;40185.19;5047881;28;20025;-78
2022/03/09 03:25:14;;;;;;;22.20;11.82;;;;;;;-146.64;100.00;40125.81;5066002;28;20020;-77
2022/03/09 03:27:39;;;;;;;22.95;11.52;;;;;;;-146.64;100.00;40003.00;5036173;28;20402;-77
2022/03/09 03:30:06;;;;;;;18.40;10.65;;;;;;;-146.64;100.00;40017.31;5040539;28;20037;-77
2022/03/09 03:32:31;;;;;;;;;;;;;;;-146.64;100.00;39976.38;5044009;28;20049;-78
2022/03/09 03:34:57;;;;;;;18.55;11.35;;;;;;;-146.64;100.00;40000.94;5060007;28;19912;-77
2022/03/09 03:37:22;;;;;;;17.90;11.07;;;;;;;-146.64;100.00;39939.53;5059207;28;20033;-77
2022/03/09 03:39:47;;;;;;;24.42;10.95;;;;;;;-146.64;100.00;39939.53;5042030;28;20028;-77
2022/03/09 03:42:13;;;;;;;21.25;10.75;;;;;;;-146.64;100.00;39894.50;5052050;28;20025;-77
2022/03/09 03:44:38;;;;;;;17.88;11.23;;;;;;;-146.64;100.00;39880.19;5041374;28;20047;-77
2022/03/09 03:47:04;;;;;;;17.50;10.75;;;;;;;-146.64;100.00;39808.53;5045799;28;20053;-77
2022/03/09 03:49:29;;;;;;;17.83;10.13;;;;;;;-146.64;100.00;39814.69;5042146;28;20028;-77
2022/03/09 03:51:54;;;;;;;18.52;10.63;;;;;;;-146.64;100.00;39796.25;5052860;28;20055;-77
2022/03/09 03:54:20;;;;;;;20.38;10.80;;;;;;;-146.64;100.00;39820.81;5052093;28;20041;-77
2022/03/09 03:56:46;;;;;;;17.00;10.68;;;;;;;-146.64;100.00;39878.13;5040264;28;20032;-77
2022/03/09 03:59:12;;;;;;;17.60;11.32;;;;;;;-146.64;100.00;39824.91;5053073;28;20020;-78
2022/03/09 04:01:37;;;;;;;16.33;10.25;;;;;;;-146.64;100.00;39810.59;5043802;28;20140;-77
2022/03/09 04:04:03;;;;;;;19.48;10.75;;;;;;;-146.64;100.00;39829.00;5057666;28;20157;-76
2022/03/09 04:06:29;;;;;;;24.52;11.38;;;;;;;-146.64;100.00;39804.44;5059013;28;20024;-77
2022/03/09 04:08:54;;;;;;;18.02;11.75;;;;;;;-146.64;100.00;39857.66;5058782;28;20029;-77
2022/03/09 04:11:20;;;;;;;21.77;10.73;;;;;;;-146.64;100.00;39869.94;5063547;28;20077;-77
2022/03/09 04:13:45;;;;;;;21.08;11.18;;;;;;;-146.64;100.00;39855.63;5059115;28;20025;-77
2022/03/09 04:16:11;;;;;;;17.60;10.98;;;;;;;-146.64;100.00;39921.13;5043963;28;20036;-77
2022/03/09 04:18:36;;;;;;;18.63;11.00;;;;;;;-146.64;100.00;39947.72;5056946;28;20037;-76
2022/03/09 04:21:02;;;;;;;15.98;10.55;;;;;;;-146.64;100.00;39943.63;5059950;28;20059;-74
2022/03/09 04:23:27;;;;;;;17.98;10.90;;;;;;;-146.64;100.00;39990.72;5056310;28;20029;-75
2022/03/09 04:25:52;;;;;;;17.38;11.07;;;;;;;-146.64;100.00;39872.00;5065073;28;20082;-75
2022/03/09 04:28:18;;;;;;;19.38;11.43;;;;;;;-146.64;100.00;39964.09;5053600;28;20056;-75
2022/03/09 04:30:44;;;;;;;19.67;11.52;;;;;;;-146.64;100.00;39902.69;5060320;28;20065;-75
2022/03/09 04:33:10;;;;;;;19.42;11.73;;;;;;;-146.64;100.00;39955.91;5054385;28;20148;-75
2022/03/09 04:35:35;;;;;;;16.65;11.05;;;;;;;-146.64;100.00;39919.06;5053852;28;20045;-75
2022/03/09 04:38:01;;;;;;;20.77;11.40;;;;;;;-146.64;100.00;39962.06;5058497;28;20034;-75
2022/03/09 04:40:27;;;;;;;20.48;12.25;;;;;;;-146.64;100.00;39923.16;5055928;28;20097;-75
2022/03/09 04:42:52;;;;;;;21.30;11.50;;;;;;;-146.64;100.00;39902.69;5036158;28;20132;-75
2022/03/09 04:45:19;;;;;;;17.52;10.07;;;;;;;-146.64;100.00;39935.44;5053100;28;20032;-75
2022/03/09 04:47:45;;;;;;;33.25;10.88;;;;;;;-146.64;100.00;39976.38;5041379;28;20120;-75
2022/03/09 04:50:10;;;;;;;20.25;11.20;;;;;;;-146.64;100.00;39972.28;5050966;28;20067;-76
2022/03/09 04:52:35;;;;;;;15.55;10.68;;;;;;;-146.64;100.00;40027.56;5044959;28;20023;-76
2022/03/09 04:55:01;;;;;;;18.77;11.93;;;;;;;-146.64;100.00;40033.69;5063959;28;20029;-75
2022/03/09 04:57:26;;;;;;;21.50;11.80;;;;;;;-146.64;100.00;40078.72;5060245;28;20029;-76
2022/03/09 04:59:51;;;;;;;19.33;12.02;;;;;;;-146.64;100.00;40060.31;5056549;28;20048;-75
2022/03/09 05:02:17;;;;;;;17.23;11.32;;;;;;;-146.64;100.00;40144.22;5055079;28;20040;-75
2022/03/09 05:04:42;;;;;;;18.02;11.35;;;;;;;-146.64;100.00;40152.41;5058357;28;20031;-75
2022/03/09 05:07:07;;;;;;;18.45;10.95;;;;;;;-146.64;100.00;40074.63;5040624;28;20359;-75
2022/03/09 05:09:33;;;;;;;20.75;11.55;;;;;;;-146.64;100.00;40050.06;5068885;28;20028;-76
2022/03/09 05:11:59;;;;;;;18.98;10.82;;;;;;;-146.64;100.00;40113.53;5038188;28;20452;-76
2022/03/09 05:14:24;;;;;;;17.55;10.95;;;;;;;-146.64;100.00;40119.66;5052062;28;20464;-76
2022/03/09 05:16:50;;;;;;;18.35;10.15;;;;;;;-146.64;100.00;40222.03;5054460;28;20379;-76
2022/03/09 05:19:15;;;;;;;19.15;11.13;;;;;;;-146.64;100.00;40148.31;5037277;28;20740;-76
2022/03/09 05:21:40;;;;;;;21.08;12.25;;;;;;;-146.64;100.00;40226.13;5060609;28;20033;-76
2022/03/09 05:24:06;;;;;;;24.30;11.20;;;;;;;-146.64;100.00;40262.97;5042077;28;20028;-76
2022/03/09 05:26:32;;;;;;;23.05;11.43;;;;;;;-146.64;100.00;40344.84;5060254;28;20021;-76
2022/03/09 05:28:58;;;;;;;25.95;12.35;;;;;;;-146.64;100.00;40351.00;5049158;28;20037;-76
2022/03/09 05:31:24;;;;;;;17.23;11.10;;;;;;;-146.64;100.00;40340.75;5025092;28;20044;-76
2022/03/09 05:33:49;;;;;;;19.80;10.23;;;;;;;-146.64;100.00;40355.09;5051927;28;20029;-76
2022/03/09 05:36:15;;;;;;;21.63;11.90;;;;;;;-146.64;100.00;40414.44;5035963;28;20305;-76
2022/03/09 05:38:41;;;;;;;20.20;12.02;;;;;;;-146.64;100.00;40443.13;5026171;28;20036;-76
2022/03/09 05:41:07;;;;;;;19.40;11.38;;;;;;;-146.64;100.00;40492.25;5032272;28;20028;-76
2022/03/09 05:43:32;;;;;;;23.35;11.75;;;;;;;-146.64;100.00;40602.78;5059720;28;20101;-76
2022/03/09 05:45:58;;;;;;;22.48;12.43;;;;;;;-146.64;100.00;40529.09;5052760;28;20033;-76
2022/03/09 05:48:23;;;;;;;19.40;11.93;;;;;;;-146.64;100.00;40551.63;5056392;28;20025;-77
2022/03/09 05:50:48;;;;;;;20.67;12.23;;;;;;;-146.64;100.00;40576.19;5063801;28;20028;-76
2022/03/09 05:53:14;;;;;;;23.48;11.82;;;;;;;-146.64;100.00;40479.97;5062599;28;20391;-76
2022/03/09 05:55:40;;;;;;;18.50;11.15;;;;;;;-146.64;100.00;40344.84;5024737;28;20028;-76
2022/03/09 05:58:06;;;;;;;19.17;12.98;;;;;;;-146.64;100.00;40279.34;5050656;28;20115;-76
2022/03/09 06:00:31;;;;;;;18.67;12.30;;;;;;;-146.64;100.00;40234.31;5053147;28;20056;-76
2022/03/09 06:02:57;;;;;;;20.45;12.40;;;;;;;-146.64;100.00;40269.09;5037635;28;20041;-77
2022/03/09 06:05:22;;;;;;;18.20;11.93;;;;;;;-146.64;100.00;40242.50;5039643;28;20025;-76
2022/03/09 06:07:49;;;;;;;18.70;11.13;;;;;;;-146.64;100.00;40267.06;5070983;28;20028;-76
2022/03/09 06:10:14;;;;;;;;;;;;;;;-146.64;100.00;40222.03;5055985;28;20279;-76
2022/03/09 06:12:40;;;;;;;27.02;10.95;;;;;;;-146.64;100.00;40164.72;5054685;28;19973;-76
2022/03/09 06:15:06;;;;;;;21.85;11.70;;;;;;;-146.64;100.00;40191.31;5056982;28;20026;-76
2022/03/09 06:17:31;;;;;;;18.83;11.10;;;;;;;-146.64;100.00;40148.31;5055416;28;20037;-77
2022/03/09 06:19:56;;;;;;;25.92;11.50;;;;;;;-146.64;100.00;40213.84;5057134;28;20413;-76
2022/03/09 06:22:22;;;;;;;20.58;11.88;;;;;;;-146.64;100.00;40164.72;5047824;28;20162;-76
2022/03/09 06:24:47;;;;;;;19.65;11.57;;;;;;;-146.64;100.00;40201.56;5038484;28;20060;-75
2022/03/09 06:27:13;;;;;;;17.92;10.60;;;;;;;-146.64;100.00;40187.22;5053041;28;20040;-76
2022/03/09 06:29:39;;;;;;;26.30;10.93;;;;;;;-146.64;100.00;40189.28;5049487;28;20036;-76
2022/03/09 06:32:05;;;;;;;20.38;11.82;;;;;;;-146.64;100.00;40148.31;5059975;28;20365;-76
2022/03/09 06:34:30;;;;;;;16.17;11.38;;;;;;;-146.64;100.00;40174.94;5049030;28;20039;-76
2022/03/09 06:36:55;;;;;;;21.30;11.75;;;;;;;-146.64;100.00;40187.22;5047239;28;20369;-76
2022/03/09 06:39:21;;;;;;;25.50;12.27;;;;;;;-146.64;100.00;40181.09;5053844;28;20048;-77
2022/03/09 06:41:47;;;;;;;26.63;13.65;;;;;;;-146.64;100.00;40160.63;5062199;28;20055;-76
2022/03/09 06:44:13;;;;;;;19.30;11.98;;;;;;;-146.64;100.00;40164.72;5058318;28;20062;-75
2022/03/09 06:46:39;;;;;;;20.38;11.52;;;;;;;-146.64;100.00;40099.19;5060804;28;20104;-75
2022/03/09 06:49:05;;;;;;;22.23;11.63;;;;;;;-146.64;100.00;40123.75;5054244;28;20591;-76
2022/03/09 06:51:30;;;;;;;25.90;11.38;;;;;;;-146.64;100.00;40011.19;5046451;28;20066;-76
2022/03/09 06:53:58;;;;;;;21.23;11.68;;;;;;;-146.64;100.00;40003.00;5034584;28;20514;-75
2022/03/09 06:56:23;;;;;;;18.77;11.73;;;;;;;-146.64;100.00;39923.16;5051753;28;20127;-76
2022/03/09 06:58:49;;;;;;;24.67;13.18;;;;;;;-146.64;100.00;39896.56;5032490;28;20124;-75
2022/03/09 07:01:15;;;;;;;23.42;11.48;;;;;;;-146.64;100.00;39865.84;5057373;28;20041;-76
2022/03/09 07:03:41;;;;;;;24.10;12.57;;;;;;;-146.64;100.00;39841.28;5053767;28;20025;-76
2022/03/09 07:06:06;;;;;;;17.90;10.60;;;;;;;-146.64;100.00;39763.50;5054706;28;20145;-76
2022/03/09 07:08:33;;;;;;;20.67;10.85;;;;;;;-146.64;100.00;39763.50;5045058;28;20021;-75
2022/03/09 07:10:58;;;;;;;22.25;11.68;;;;;;;-146.64;100.00;39741.00;5060644;28;20078;-76
2022/03/09 07:13:24;;;;;;;21.75;11.40;;;;;;;-146.64;100.00;39736.91;5037555;28;20024;-75
2022/03/09 07:15:50;;;;;;;24.00;10.95;;;;;;;-146.64;100.00;39710.28;5061104;28;20056;-76
2022/03/09 07:18:15;;;;;;;21.42;11.68;;;;;;;-146.64;100.00;39724.63;5060869;28;20029;-76
2022/03/09 07:20:41;;;;;;;19.10;12.32;;;;;;;-146.64;100.00;39710.28;5067470;28;20432;-78
2022/03/09 07:23:06;;;;;;;19.63;11.40;;;;;;;-146.64;100.00;39698.00;5058580;28;20140;-76
2022/03/09 07:25:32;;;;;;;19.25;11.55;;;;;;;-146.64;100.00;39689.81;5054641;28;20029;-76
2022/03/09 07:27:59;;;;;;;18.08;12.43;;;;;;;-146.64;100.00;39689.81;5051850;28;20021;-76
2022/03/09 07:30:25;;;;;;;18.45;10.23;;;;;;;-146.64;100.00;39726.66;5042126;28;20104;-76
2022/03/09 07:32:51;;;;;;;19.33;11.80;;;;;;;-146.64;100.00;39698.00;5043153;28;20036;-78
2022/03/09 07:35:16;;;;;;;18.90;12.32;;;;;;;-146.64;100.00;39648.88;5061453;28;20017;-77
2022/03/09 07:37:42;;;;;;;22.70;12.43;;;;;;;-146.64;100.00;39661.16;5019168;28;20033;-76
2022/03/09 07:40:08;;;;;;;24.05;12.63;;;;;;;-146.64;100.00;39620.22;5052202;28;20025;-76
2022/03/09 07:42:34;;;;;;;17.73;11.65;;;;;;;-146.64;100.00;39616.13;5054616;28;20071;-76
2022/03/09 07:45:00;;;;;;;20.67;11.88;;;;;;;-146.64;100.00;39599.75;5060872;28;20161;-76
2022/03/09 07:47:26;;;;;;;25.65;11.65;;;;;;;-146.64;100.00;39538.34;5056195;28;20040;-76
2022/03/09 07:49:54;;;;;;;18.23;11.95;;;;;;;-146.64;100.00;39632.50;5053447;28;20029;-76
2022/03/09 07:52:19;;;;;;;25.30;13.35;;;;;;;-146.64;100.00;39616.13;5051512;28;20032;-76
2022/03/09 07:54:46;;;;;;;20.73;11.82;;;;;;;-146.64;100.00;39618.19;5051879;28;20029;-76
2022/03/09 07:57:12;;;;;;;23.77;13.02;;;;;;;-146.64;100.00;39589.53;5045587;28;20099;-76
2022/03/09 07:59:38;;;;;;;22.60;12.45;;;;;;;-146.64;97.93;39562.91;5051355;28;20083;-76
2022/03/09 08:02:03;;;;;;;26.55;12.75;;;;;;;-146.64;97.50;39505.63;5051828;28;20045;-76
2022/03/09 08:04:29;;;;;;;25.45;12.75;;;;;;;-146.64;97.03;39485.16;5052384;28;20036;-76
2022/03/09 08:06:54;;;;;;;29.85;12.88;;;;;;;-146.64;93.11;39501.53;5019524;28;20036;-76
2022/03/09 08:09:20;;;;;;;20.23;11.88;;;;;;;-146.64;93.31;39505.63;5043581;28;20100;-75
2022/03/09 08:11:46;;;;;;;22.45;13.10;;;;;;;-146.64;94.05;39509.72;5052612;28;20025;-76
2022/03/09 08:14:12;;;;;;;20.20;11.90;;;;;;;-146.64;89.90;39456.50;5054813;28;20031;-77
2022/03/09 08:16:37;;;;;;;19.48;12.52;;;;;;;-146.64;87.17;39407.38;5026772;28;20450;-77
2022/03/09 08:19:03;;;;;;;18.30;11.00;;;;;;;-146.64;81.54;39401.22;5056596;28;20108;-76
2022/03/09 08:21:29;;;;;;;20.55;12.10;;;;;;;-146.64;79.92;39370.53;5056750;28;20525;-77
2022/03/09 08:23:54;;;;;;;29.63;13.13;;;;;;;-146.64;76.61;39343.94;5030082;28;20100;-76
2022/03/09 08:26:20;;;;;;;22.85;13.25;;;;;;;-146.64;73.84;39327.56;5066323;28;20021;-77
2022/03/09 08:28:45;;;;;;;21.88;12.52;;;;;;;-146.64;74.47;39292.75;5048392;28;20032;-77
2022/03/09 08:31:21;;;;;;;22.60;12.48;;;;;;;-146.64;74.42;39288.66;5049662;28;20025;-77
2022/03/09 08:33:47;;;;;;;24.98;12.98;;;;;;;-146.64;74.62;39239.56;5050496;28;20039;-77
2022/03/09 08:36:12;;;;;;;23.95;11.43;;;;;;;-146.64;74.16;39296.84;5024840;28;20025;-77
2022/03/09 08:38:37;;;;;;;17.20;12.15;;;;;;;-146.64;72.33;39270.25;5054704;28;20560;-77
2022/03/09 08:41:03;;;;;;;22.35;12.07;;;;;;;-146.64;71.36;39272.28;5046731;28;20066;-79
2022/03/09 08:43:29;;;;;;;25.17;12.25;;;;;;;-146.64;72.56;39282.53;5032294;28;20542;-77
2022/03/09 08:45:55;;;;;;;19.27;12.48;;;;;;;-146.64;71.74;39290.72;5028431;28;20013;-77
2022/03/09 08:48:20;;;;;;;25.63;12.30;;;;;;;-146.64;72.74;39282.53;5032462;28;20310;-77
2022/03/09 08:50:46;;;;;;;23.13;12.63;;;;;;;-146.64;71.85;39276.38;5066682;28;20506;-79
2022/03/09 08:53:11;;;;;;;20.50;13.00;;;;;;;-146.64;71.12;39231.38;5044919;28;20117;-77
2022/03/09 08:55:37;;;;;;;25.80;12.55;;;;;;;-146.64;70.91;39206.81;5064957;28;20111;-77
2022/03/09 08:58:02;;;;;;;27.40;13.10;;;;;;;-146.64;68.33;39219.09;5057594;28;20036;-77
2022/03/09 09:00:28;;;;;;;26.80;12.93;;;;;;;-146.64;68.74;39186.34;5072455;28;20031;-77
2022/03/09 09:02:55;;;;;;;21.92;13.77;;;;;;;-146.64;69.01;39188.38;5059830;28;20028;-77
2022/03/09 09:05:20;;;;;;;19.77;12.63;;;;;;;-146.64;67.85;39178.16;5054932;28;20116;-77
2022/03/09 09:07:47;;;;;;;22.13;13.18;;;;;;;-146.64;65.53;39137.22;5033683;28;20059;-77
2022/03/09 09:10:12;;;;;;;26.10;14.38;;;;;;;-146.64;63.02;39139.28;5070460;28;20489;-77
2022/03/09 09:12:38;;;;;;;19.75;13.32;;;;;;;-146.64;62.91;39141.31;5062848;28;20017;-77
2022/03/09 09:15:04;;;;;;;25.33;13.90;;;;;;;-146.64;62.47;39133.13;5050485;28;20082;-77
2022/03/09 09:17:29;;;;;;;24.73;12.75;;;;;;;-146.64;61.56;39112.66;5033508;28;20025;-77
2022/03/09 09:19:55;;;;;;;25.27;13.25;;;;;;;-146.64;60.73;39100.38;5042404;28;20043;-77
2022/03/09 09:22:20;;;;;;;23.95;13.30;;;;;;;-146.64;59.64;39100.38;5050646;28;20029;-79
2022/03/09 09:24:45;;;;;;;27.52;13.68;;;;;;;-146.64;59.46;39112.66;5050775;28;20028;-77
2022/03/09 09:27:11;;;;;;;29.67;13.43;;;;;;;-146.64;58.40;39067.66;5063663;28;20035;-77
2022/03/09 09:29:36;;;;;;;30.25;15.05;;;;;;;-146.64;58.89;39086.06;5050346;28;20039;-77
2022/03/09 09:32:02;;;;;;;24.10;14.32;;;;;;;-146.64;56.63;39026.72;5066612;28;20064;-77
2022/03/09 09:34:28;;;;;;;25.80;14.32;;;;;;;-146.64;58.44;39059.47;5039140;28;20016;-77
2022/03/09 09:36:54;;;;;;;24.52;14.63;;;;;;;-146.64;58.35;39100.38;5039667;28;20032;-77
2022/03/09 09:39:20;;;;;;;27.27;14.13;;;;;;;-146.64;57.09;39041.03;5065356;28;20047;-77
2022/03/09 09:41:48;;;;;;;27.83;14.77;;;;;;;-146.64;57.12;39022.63;5068258;28;20035;-77
2022/03/09 09:44:15;;;;;;;29.15;15.25;;;;;;;-146.64;57.16;39051.28;5059187;28;20025;-77
2022/03/09 09:46:42;;;;;;;28.42;14.25;;;;;;;-146.64;56.56;38961.22;5034813;28;20057;-77
2022/03/09 09:49:12;;;;;;;28.10;15.88;;;;;;;-146.64;53.35;38948.94;5033127;28;20217;-77
2022/03/09 09:51:40;;;;;;;37.97;17.15;;;;;;;-146.64;53.87;38948.94;5038373;28;20055;-77
2022/03/09 09:54:06;;;;;;;34.30;17.30;;;;;;;-146.64;53.78;38975.56;5053918;28;20492;-77
2022/03/09 09:56:35;;;;;;;24.98;15.30;;;;;;;-146.64;54.06;38969.41;5044281;28;20032;-77
2022/03/09 09:59:00;;;;;;;26.08;15.38;;;;;;;-146.64;53.78;38951.00;5068104;28;20032;-77
2022/03/09 10:01:26;;;;;;;28.70;16.27;;;;;;;-146.64;52.07;38953.03;5067830;28;20053;-77
2022/03/09 10:03:51;;;;;;;34.40;16.92;;;;;;;-146.64;51.16;38961.22;5067788;28;20048;-77
2022/03/09 10:06:16;;;;;;;28.00;16.33;;;;;;;-146.64;51.77;38936.66;5041694;28;20045;-75
2022/03/09 10:09:03;;;;;;;27.65;17.02;;;;;;;-146.64;52.50;38963.28;5058609;28;20025;-76
2022/03/09 10:11:48;;;;;;;29.05;17.00;;;;;;;-146.64;51.30;38912.13;5040752;28;20029;-76
2022/03/09 10:14:15;;;;;;;34.22;16.73;;;;;;;-146.64;50.24;38914.16;5034777;28;20021;-75
2022/03/09 10:17:16;;;;;;;31.10;17.23;;;;;;;-146.64;51.21;38936.66;5048059;28;20028;-75
2022/03/09 10:19:47;;;;;;;28.08;16.05;;;;;;;-146.64;49.83;38928.50;5069316;28;20037;-76
2022/03/09 10:22:31;;;;;;;33.17;18.10;;;;;;;-146.64;49.98;38903.94;5054853;28;20048;-76
2022/03/09 10:24:59;;;;;;;35.33;17.45;;;;;;;-146.64;49.91;38889.59;5065642;28;20035;-76
2022/03/09 10:27:32;;;;;;;31.98;16.75;;;;;;;-146.64;48.62;38875.28;5040535;28;20059;-76
2022/03/09 10:29:59;;;;;;;33.28;17.70;;;;;;;-146.64;49.09;38867.09;5052553;28;20116;-76
2022/03/09 10:32:53;;;;;;;43.75;18.80;;;;;;;-146.64;48.55;38840.50;5043033;28;20028;-76
2022/03/09 10:35:27;;;;;;;38.80;19.33;;;;;;;-146.64;49.23;38867.09;5027782;28;20041;-76
2022/03/09 10:37:52;;;;;;;35.95;18.85;;;;;;;-146.64;48.33;38860.97;5058545;28;20049;-76
2022/03/09 10:40:19;;;;;;;37.17;18.80;;;;;;;-146.64;47.80;38822.06;5030761;28;20183;-76
2022/03/09 10:42:45;;;;;;;33.30;18.60;;;;;;;-146.64;48.63;38815.94;5068851;28;20063;-75
2022/03/09 10:45:11;;;;;;;35.85;19.02;;;;;;;-146.64;48.27;38777.06;5064397;28;20045;-75
2022/03/09 10:47:42;;;;;;;34.65;19.05;;;;;;;-146.64;48.22;38799.56;5036440;28;20033;-75
2022/03/09 10:50:13;;;;;;;34.92;18.77;;;;;;;-146.64;46.97;38760.69;5057338;28;20052;-75
2022/03/09 10:52:53;;;;;;;40.20;19.38;;;;;;;-146.64;46.83;38813.88;5052367;28;20481;-75